createdAt,value
2023-04-09T00:02:26.693Z,5.72
2023-04-09T00:04:59.437Z,5.70
2023-04-09T00:07:31.127Z,5.77
2023-04-09T00:10:02.878Z,5.71
2023-04-09T00:12:34.730Z,5.67
2023-04-09T00:15:09.677Z,5.71
2023-04-09T00:17:43.029Z,5.69
2023-04-09T00:20:14.813Z,5.72
2023-04-09T00:22:46.707Z,5.72
2023-04-09T00:25:18.905Z,5.67
2023-04-09T00:27:51.127Z,5.67
2023-04-09T00:30:23.330Z,5.70
2023-04-09T00:32:55.464Z,5.72
2023-04-09T00:35:27.300Z,5.74
2023-04-09T00:37:59.065Z,5.66
2023-04-09T00:40:31.030Z,5.69
2023-04-09T00:43:02.920Z,5.68
2023-04-09T00:45:35.014Z,5.64
2023-04-09T00:48:07.488Z,5.51
2023-04-09T00:50:39.250Z,5.38
2023-04-09T00:53:12.241Z,5.41
2023-04-09T00:55:44.814Z,5.42
2023-04-09T00:58:17.125Z,5.46
2023-04-09T01:00:48.866Z,5.57
2023-04-09T01:03:20.785Z,5.64
2023-04-09T01:06:07.741Z,5.67
2023-04-09T01:08:48.589Z,5.66
2023-04-09T01:11:38.772Z,5.60
2023-04-09T01:14:56.917Z,5.56
2023-04-09T01:17:42.982Z,5.57
2023-04-09T01:20:21.052Z,5.60
2023-04-09T01:23:10.942Z,5.63
2023-04-09T01:25:47.640Z,5.62
2023-04-09T01:28:42.649Z,5.52
2023-04-09T01:31:18.427Z,5.47
2023-04-09T01:33:52.548Z,5.45
2023-04-09T01:36:26.497Z,5.50
2023-04-09T01:39:01.163Z,5.52
2023-04-09T01:41:34.563Z,5.57
2023-04-09T01:44:08.222Z,5.59
2023-04-09T01:46:40.229Z,5.58
2023-04-09T01:49:12.485Z,5.60
2023-04-09T01:51:44.570Z,5.61
2023-04-09T01:54:16.949Z,5.61
2023-04-09T01:56:49.096Z,5.60
2023-04-09T01:59:23.622Z,5.63
2023-04-09T02:02:11.372Z,5.64
2023-04-09T02:04:48.016Z,5.68
2023-04-09T02:07:32.676Z,5.73
2023-04-09T02:10:06.545Z,5.80
2023-04-09T02:12:41.178Z,5.83
2023-04-09T02:15:13.809Z,5.86
2023-04-09T02:17:45.726Z,5.84
2023-04-09T02:20:18.974Z,5.86
2023-04-09T02:22:51.214Z,5.86
2023-04-09T02:25:23.167Z,5.89
2023-04-09T02:27:54.882Z,5.91
2023-04-09T02:30:26.543Z,5.84
2023-04-09T02:32:58.276Z,5.87
2023-04-09T02:35:30.016Z,5.86
2023-04-09T02:38:02.135Z,5.90
2023-04-09T02:40:33.818Z,5.94
2023-04-09T02:43:05.554Z,5.98
2023-04-09T02:45:37.318Z,6.04
2023-04-09T02:48:09.097Z,6.08
2023-04-09T02:50:41.020Z,6.13
2023-04-09T02:53:12.870Z,6.14
2023-04-09T02:55:44.621Z,6.11
2023-04-09T02:58:16.353Z,6.14
2023-04-09T03:00:48.377Z,6.12
2023-04-09T03:03:20.244Z,6.12
2023-04-09T03:05:52.184Z,6.13
2023-04-09T03:08:24.009Z,6.08
2023-04-09T03:10:55.708Z,6.09
2023-04-09T03:13:30.790Z,6.05
2023-04-09T03:16:03.305Z,6.00
2023-04-09T03:18:35.215Z,5.99
2023-04-09T03:21:07.921Z,6.04
2023-04-09T03:23:42.421Z,6.10
2023-04-09T03:26:14.076Z,6.01
2023-04-09T03:28:52.984Z,5.98
2023-04-09T03:31:25.004Z,5.99
2023-04-09T03:33:56.736Z,5.96
2023-04-09T03:36:31.615Z,5.95
2023-04-09T03:39:15.219Z,5.97
2023-04-09T03:41:48.805Z,5.97
2023-04-09T03:44:22.303Z,5.93
2023-04-09T03:47:15.535Z,5.95
2023-04-09T03:49:47.483Z,5.92
2023-04-09T03:52:25.081Z,5.92
2023-04-09T03:55:05.444Z,5.91
2023-04-09T03:57:38.322Z,5.92
2023-04-09T04:00:13.988Z,5.87
2023-04-09T04:03:24.047Z,5.83
2023-04-09T04:06:12.117Z,5.86
2023-04-09T04:09:02.502Z,5.87
2023-04-09T04:11:58.931Z,5.93
2023-04-09T04:14:43.938Z,5.95
2023-04-09T04:17:26.180Z,6.01
2023-04-09T04:19:59.499Z,6.01
2023-04-09T04:22:34.675Z,6.08
2023-04-09T04:25:09.174Z,6.09
2023-04-09T04:27:43.896Z,6.06
2023-04-09T04:30:17.501Z,6.08
2023-04-09T04:33:01.167Z,6.06
2023-04-09T04:35:38.851Z,5.97
2023-04-09T04:38:13.624Z,5.94
2023-04-09T04:40:45.508Z,5.93
2023-04-09T04:43:17.328Z,5.97
2023-04-09T04:45:49.199Z,6.01
2023-04-09T04:48:21.688Z,5.98
2023-04-09T04:50:58.540Z,5.98
2023-04-09T04:53:34.661Z,5.99
2023-04-09T04:56:16.727Z,6.00
2023-04-09T04:59:06.051Z,5.98
2023-04-09T05:01:50.194Z,5.95
2023-04-09T05:04:21.983Z,5.87
2023-04-09T05:06:53.736Z,5.76
2023-04-09T05:09:27.851Z,5.70
2023-04-09T05:12:17.875Z,5.68
2023-04-09T05:14:53.587Z,5.59
2023-04-09T05:17:26.045Z,5.62
2023-04-09T05:19:58.531Z,5.60
2023-04-09T05:22:38.270Z,5.60
2023-04-09T05:25:10.840Z,5.62
2023-04-09T05:27:47.344Z,5.67
2023-04-09T05:30:19.902Z,5.74
2023-04-09T05:32:51.770Z,5.84
2023-04-09T05:35:23.683Z,5.90
2023-04-09T05:37:55.639Z,5.99
2023-04-09T05:40:27.417Z,5.94
2023-04-09T05:42:59.791Z,5.92
2023-04-09T05:45:44.797Z,5.88
2023-04-09T05:48:18.367Z,5.83
2023-04-09T05:50:55.588Z,5.85
2023-04-09T05:53:32.105Z,5.89
2023-04-09T05:56:04.152Z,5.87
2023-04-09T05:58:51.416Z,5.90
2023-04-09T06:01:23.230Z,5.97
2023-04-09T06:03:57.708Z,6.03
2023-04-09T06:06:30.017Z,6.05
2023-04-09T06:09:01.860Z,6.08
2023-04-09T06:11:34.512Z,6.04
2023-04-09T06:14:07.291Z,5.95
2023-04-09T06:16:39.000Z,5.99
2023-04-09T06:19:12.442Z,5.96
2023-04-09T06:21:44.224Z,6.01
2023-04-09T06:24:16.031Z,6.02
2023-04-09T06:26:47.702Z,6.09
2023-04-09T06:29:19.514Z,6.15
2023-04-09T06:31:51.320Z,6.22
2023-04-09T06:34:23.072Z,6.24
2023-04-09T06:36:54.807Z,6.18
2023-04-09T06:39:26.478Z,6.14
2023-04-09T06:41:58.144Z,6.20
2023-04-09T06:44:41.371Z,6.20
2023-04-09T06:47:13.039Z,6.21
2023-04-09T06:49:44.708Z,6.27
2023-04-09T06:52:16.517Z,6.28
2023-04-09T06:54:48.197Z,6.29
2023-04-09T06:57:19.881Z,6.28
2023-04-09T06:59:51.654Z,6.29
2023-04-09T07:02:23.531Z,6.37
2023-04-09T07:04:55.445Z,6.43
2023-04-09T07:07:27.151Z,6.51
2023-04-09T07:09:58.906Z,6.60
2023-04-09T07:12:32.396Z,6.52
2023-04-09T07:15:06.539Z,6.56
2023-04-09T07:17:38.464Z,6.61
2023-04-09T07:20:10.815Z,6.67
2023-04-09T07:22:42.504Z,6.65
2023-04-09T07:25:15.366Z,6.67
2023-04-09T07:27:47.212Z,6.74
2023-04-09T07:30:19.016Z,6.73
2023-04-09T07:32:50.903Z,6.77
2023-04-09T07:35:23.778Z,6.84
2023-04-09T07:37:55.880Z,6.92
2023-04-09T07:40:27.660Z,6.98
2023-04-09T07:42:59.352Z,7.11
2023-04-09T07:45:31.107Z,7.26
2023-04-09T07:48:02.830Z,7.33
2023-04-09T07:50:34.767Z,7.44
2023-04-09T07:53:06.474Z,7.49
2023-04-09T07:55:38.216Z,7.44
2023-04-09T07:58:10.200Z,7.53
2023-04-09T08:00:42.100Z,7.39
2023-04-09T08:03:14.275Z,7.35
2023-04-09T08:05:46.202Z,7.43
2023-04-09T08:08:17.989Z,7.57
2023-04-09T08:10:49.726Z,7.75
2023-04-09T08:13:24.246Z,7.99
2023-04-09T08:15:56.058Z,8.25
2023-04-09T08:18:28.410Z,8.51
2023-04-09T08:21:04.747Z,8.82
2023-04-09T08:23:36.499Z,9.16
2023-04-09T08:26:08.209Z,9.68
2023-04-09T08:28:39.954Z,10.18
2023-04-09T08:31:11.769Z,10.60
2023-04-09T08:33:43.502Z,10.99
2023-04-09T08:36:16.066Z,11.21
2023-04-09T08:38:48.791Z,11.31
2023-04-09T08:41:22.029Z,11.39
2023-04-09T08:43:58.206Z,11.20
2023-04-09T08:46:32.167Z,11.30
2023-04-09T08:49:04.043Z,11.14
2023-04-09T08:51:35.934Z,11.09
2023-04-09T08:54:08.017Z,11.54
2023-04-09T08:56:39.741Z,12.42
2023-04-09T08:59:11.505Z,13.11
2023-04-09T09:01:43.367Z,13.71
2023-04-09T09:04:15.573Z,14.34
2023-04-09T09:06:47.400Z,14.81
2023-04-09T09:09:19.083Z,15.12
2023-04-09T09:11:52.035Z,15.42
2023-04-09T09:14:23.804Z,15.46
2023-04-09T09:16:55.536Z,16.10
2023-04-09T09:19:27.188Z,17.01
2023-04-09T09:22:06.661Z,17.57
2023-04-09T09:24:52.891Z,17.62
2023-04-09T09:27:39.306Z,17.29
2023-04-09T09:30:24.703Z,17.43
2023-04-09T09:33:09.752Z,16.66
2023-04-09T09:35:51.560Z,16.24
2023-04-09T09:38:24.560Z,16.05
2023-04-09T09:40:56.734Z,16.47
2023-04-09T09:43:42.239Z,16.30
2023-04-09T09:46:14.948Z,16.26
2023-04-09T09:48:46.893Z,16.53
2023-04-09T09:51:19.727Z,17.01
2023-04-09T09:53:54.651Z,17.01
2023-04-09T09:56:34.754Z,16.36
2023-04-09T09:59:11.019Z,16.31
2023-04-09T10:01:44.058Z,16.38
2023-04-09T10:04:17.402Z,16.08
2023-04-09T10:06:52.160Z,16.27
2023-04-09T10:09:27.890Z,16.53
2023-04-09T10:12:00.715Z,16.55
2023-04-09T10:14:33.737Z,16.66
2023-04-09T10:17:05.852Z,16.70
2023-04-09T10:19:46.784Z,16.79
2023-04-09T10:22:25.659Z,16.75
2023-04-09T10:24:58.164Z,16.66
2023-04-09T10:27:29.928Z,16.60
2023-04-09T10:30:01.970Z,16.81
2023-04-09T10:32:36.283Z,16.51
2023-04-09T10:35:09.628Z,16.41
2023-04-09T10:37:50.718Z,16.52
2023-04-09T10:40:22.516Z,16.90
2023-04-09T10:42:56.385Z,16.60
2023-04-09T10:45:40.712Z,16.24
2023-04-09T10:48:14.103Z,16.05
2023-04-09T10:50:46.358Z,16.04
2023-04-09T10:53:23.770Z,16.00
2023-04-09T10:55:56.330Z,15.62
2023-04-09T10:58:28.127Z,15.40
2023-04-09T11:01:01.746Z,15.20
2023-04-09T11:03:42.968Z,15.09
2023-04-09T11:06:20.737Z,14.87
2023-04-09T11:08:52.582Z,14.75
2023-04-09T11:11:28.313Z,14.56
2023-04-09T11:14:03.275Z,14.35
2023-04-09T11:16:34.991Z,13.99
2023-04-09T11:19:06.813Z,13.65
2023-04-09T11:21:46.250Z,13.36
2023-04-09T11:24:19.054Z,13.15
2023-04-09T11:26:51.301Z,13.09
2023-04-09T11:29:23.206Z,12.81
2023-04-09T11:31:54.999Z,12.50
2023-04-09T11:34:29.717Z,12.44
2023-04-09T11:37:07.108Z,12.25
2023-04-09T11:39:38.852Z,11.93
2023-04-09T11:42:18.108Z,11.87
2023-04-09T11:44:50.392Z,11.71
2023-04-09T11:47:22.513Z,11.65
2023-04-09T11:49:54.449Z,11.58
2023-04-09T11:52:27.960Z,11.54
2023-04-09T11:55:04.600Z,11.45
2023-04-09T11:57:46.898Z,11.37
2023-04-09T12:00:21.293Z,11.34
2023-04-09T12:03:04.640Z,11.32
2023-04-09T12:05:38.424Z,11.34
2023-04-09T12:08:12.054Z,11.29
2023-04-09T12:10:44.550Z,11.19
2023-04-09T12:13:16.795Z,11.17
2023-04-09T12:15:50.162Z,11.24
2023-04-09T12:18:23.441Z,11.19
2023-04-09T12:20:55.219Z,11.09
2023-04-09T12:23:26.916Z,11.06
2023-04-09T12:26:02.654Z,11.04
2023-04-09T12:28:34.440Z,11.02
2023-04-09T12:31:09.904Z,11.00
2023-04-09T12:33:42.700Z,10.97
2023-04-09T12:36:14.416Z,10.96
2023-04-09T12:38:46.172Z,11.01
2023-04-09T12:41:17.936Z,11.00
2023-04-09T12:43:49.931Z,10.99
2023-04-09T12:46:21.890Z,10.92
2023-04-09T12:48:53.958Z,10.87
2023-04-09T12:51:25.891Z,10.87
2023-04-09T12:53:57.581Z,10.90
2023-04-09T12:56:29.879Z,11.00
2023-04-09T12:59:01.924Z,11.09
2023-04-09T13:01:33.765Z,11.20
2023-04-09T13:04:05.778Z,11.13
2023-04-09T13:06:40.002Z,10.97
2023-04-09T13:09:11.757Z,10.86
2023-04-09T13:11:43.534Z,10.92
2023-04-09T13:14:15.675Z,10.94
2023-04-09T13:16:52.467Z,11.01
2023-04-09T13:19:24.230Z,11.07
2023-04-09T13:21:56.302Z,11.13
2023-04-09T13:24:28.082Z,11.21
2023-04-09T13:26:59.917Z,11.25
2023-04-09T13:29:32.014Z,11.19
2023-04-09T13:32:07.257Z,11.21
2023-04-09T13:34:39.664Z,11.39
2023-04-09T13:37:11.533Z,11.53
2023-04-09T13:39:44.752Z,11.72
2023-04-09T13:42:17.130Z,11.88
2023-04-09T13:44:48.814Z,11.95
2023-04-09T13:47:21.151Z,11.74
2023-04-09T13:49:53.319Z,11.79
2023-04-09T13:52:26.836Z,11.90
2023-04-09T13:55:01.397Z,11.94
2023-04-09T13:57:33.161Z,11.89
2023-04-09T14:00:05.913Z,11.90
2023-04-09T14:02:38.310Z,11.91
2023-04-09T14:05:11.528Z,11.98
2023-04-09T14:07:43.260Z,12.10
2023-04-09T14:10:15.888Z,12.18
2023-04-09T14:12:47.636Z,12.13
2023-04-09T14:15:19.492Z,12.09
2023-04-09T14:17:51.360Z,12.10
2023-04-09T14:20:24.673Z,12.19
2023-04-09T14:22:56.452Z,12.28
2023-04-09T14:25:28.186Z,12.27
2023-04-09T14:28:00.086Z,12.24
2023-04-09T14:30:31.762Z,12.28
2023-04-09T14:33:03.801Z,12.24
2023-04-09T14:35:35.831Z,12.27
2023-04-09T14:38:07.775Z,12.35
2023-04-09T14:40:39.488Z,12.39
2023-04-09T14:43:11.204Z,12.34
2023-04-09T14:45:42.930Z,12.39
2023-04-09T14:48:14.633Z,12.45
2023-04-09T14:50:46.421Z,12.41
2023-04-09T14:53:21.072Z,12.26
2023-04-09T14:55:52.693Z,12.05
2023-04-09T14:58:24.377Z,11.97
2023-04-09T15:00:56.770Z,11.99
2023-04-09T15:03:28.758Z,11.94
2023-04-09T15:06:00.683Z,12.02
2023-04-09T15:08:32.408Z,11.92
2023-04-09T15:11:04.327Z,11.77
2023-04-09T15:13:36.057Z,11.75
2023-04-09T15:16:08.037Z,11.60
2023-04-09T15:18:39.842Z,11.50
2023-04-09T15:21:11.602Z,11.39
2023-04-09T15:23:43.417Z,11.31
2023-04-09T15:26:15.367Z,11.30
2023-04-09T15:28:47.246Z,11.35
2023-04-09T15:31:19.540Z,11.32
2023-04-09T15:33:51.345Z,11.31
2023-04-09T15:36:23.064Z,11.34
2023-04-09T15:38:55.245Z,11.40
2023-04-09T15:41:27.133Z,11.41
2023-04-09T15:43:58.871Z,11.49
2023-04-09T15:46:32.578Z,11.55
2023-04-09T15:49:04.918Z,11.52
2023-04-09T15:51:36.651Z,11.47
2023-04-09T15:54:08.421Z,11.47
2023-04-09T15:56:40.380Z,11.52
2023-04-09T15:59:12.217Z,11.42
2023-04-09T16:01:44.289Z,11.38
2023-04-09T16:04:16.181Z,11.36
2023-04-09T16:06:48.314Z,11.43
2023-04-09T16:09:19.983Z,11.50
2023-04-09T16:11:51.825Z,11.49
2023-04-09T16:14:23.661Z,11.42
2023-04-09T16:16:55.910Z,11.43
2023-04-09T16:19:27.757Z,11.42
2023-04-09T16:21:59.524Z,11.39
2023-04-09T16:24:32.367Z,11.30
2023-04-09T16:27:04.132Z,11.31
2023-04-09T16:29:36.010Z,11.33
2023-04-09T16:32:10.954Z,11.38
2023-04-09T16:34:42.684Z,11.45
2023-04-09T16:37:14.471Z,11.41
2023-04-09T16:39:46.240Z,11.44
2023-04-09T16:42:18.241Z,11.45
2023-04-09T16:44:50.056Z,11.43
2023-04-09T16:47:21.824Z,11.43
2023-04-09T16:49:53.554Z,11.40
2023-04-09T16:52:25.999Z,11.31
2023-04-09T16:54:57.754Z,11.27
2023-04-09T16:57:29.422Z,11.26
2023-04-09T17:00:01.684Z,11.25
2023-04-09T17:02:34.396Z,11.22
2023-04-09T17:05:07.670Z,11.08
2023-04-09T17:07:39.524Z,11.02
2023-04-09T17:10:11.563Z,10.99
2023-04-09T17:12:43.607Z,10.95
2023-04-09T17:15:15.533Z,10.85
2023-04-09T17:17:49.505Z,10.82
2023-04-09T17:20:24.984Z,10.81
2023-04-09T17:22:56.855Z,10.76
2023-04-09T17:25:29.400Z,10.68
2023-04-09T17:28:01.736Z,10.60
2023-04-09T17:30:33.561Z,10.52
2023-04-09T17:33:05.491Z,10.49
2023-04-09T17:35:37.371Z,10.52
2023-04-09T17:38:09.218Z,10.50
2023-04-09T17:40:41.069Z,10.53
2023-04-09T17:43:14.183Z,10.41
2023-04-09T17:45:46.151Z,10.22
2023-04-09T17:48:18.011Z,10.12
2023-04-09T17:50:50.182Z,10.10
2023-04-09T17:53:22.375Z,9.96
2023-04-09T17:55:54.124Z,9.77
2023-04-09T17:58:26.083Z,9.60
2023-04-09T18:00:59.532Z,9.43
2023-04-09T18:03:31.678Z,9.31
2023-04-09T18:06:03.886Z,9.28
2023-04-09T18:08:36.860Z,9.15
2023-04-09T18:11:13.192Z,9.11
2023-04-09T18:13:45.481Z,9.03
2023-04-09T18:16:19.552Z,8.97
2023-04-09T18:18:54.086Z,8.80
2023-04-09T18:21:27.070Z,8.66
2023-04-09T18:23:59.216Z,8.58
2023-04-09T18:26:31.792Z,8.60
2023-04-09T18:29:03.667Z,8.63
2023-04-09T18:31:35.677Z,8.62
2023-04-09T18:34:07.471Z,8.68
2023-04-09T18:36:42.866Z,8.80
2023-04-09T18:39:15.241Z,8.90
2023-04-09T18:41:47.120Z,8.98
2023-04-09T18:44:18.810Z,9.02
2023-04-09T18:46:50.662Z,9.10
2023-04-09T18:49:22.497Z,9.15
2023-04-09T18:51:54.772Z,9.19
2023-04-09T18:54:26.557Z,9.21
2023-04-09T18:56:58.367Z,9.25
2023-04-09T18:59:31.611Z,9.28
2023-04-09T19:02:05.147Z,9.29
2023-04-09T19:04:40.028Z,9.27
2023-04-09T19:07:12.187Z,9.25
2023-04-09T19:09:44.603Z,9.29
2023-04-09T19:12:17.308Z,9.33
2023-04-09T19:14:49.043Z,9.35
2023-04-09T19:17:21.334Z,9.35
2023-04-09T19:19:53.144Z,9.34
2023-04-09T19:22:24.949Z,9.37
2023-04-09T19:24:56.640Z,9.38
2023-04-09T19:27:28.581Z,9.38
2023-04-09T19:30:01.183Z,9.37
2023-04-09T19:32:36.090Z,9.37
2023-04-09T19:35:08.385Z,9.38
2023-04-09T19:37:40.544Z,9.38
2023-04-09T19:40:15.474Z,9.39
2023-04-09T19:42:47.218Z,9.40
2023-04-09T19:45:18.946Z,9.39
2023-04-09T19:47:50.740Z,9.31
2023-04-09T19:50:22.754Z,9.22
2023-04-09T19:52:54.997Z,9.23
2023-04-09T19:55:26.881Z,9.28
2023-04-09T19:57:58.938Z,9.32
2023-04-09T20:00:30.787Z,9.33
2023-04-09T20:03:03.236Z,9.30
2023-04-09T20:05:35.257Z,9.28
2023-04-09T20:08:12.246Z,9.32
2023-04-09T20:10:47.371Z,9.34
2023-04-09T20:13:22.057Z,9.28
2023-04-09T20:15:53.764Z,9.27
2023-04-09T20:18:25.594Z,9.30
2023-04-09T20:20:57.371Z,9.29
2023-04-09T20:23:30.200Z,9.23
2023-04-09T20:26:02.673Z,9.13
2023-04-09T20:28:35.185Z,9.08
2023-04-09T20:31:07.781Z,9.06
2023-04-09T20:33:39.494Z,9.00
2023-04-09T20:36:15.914Z,9.02
2023-04-09T20:38:49.466Z,9.07
2023-04-09T20:41:21.216Z,9.08
2023-04-09T20:43:52.975Z,9.08
2023-04-09T20:46:24.788Z,9.11
2023-04-09T20:48:56.554Z,9.13
2023-04-09T20:51:28.374Z,9.09
2023-04-09T20:54:00.360Z,9.09
2023-04-09T20:56:32.157Z,9.04
2023-04-09T20:59:03.946Z,9.03
2023-04-09T21:01:36.193Z,9.07
2023-04-09T21:04:08.958Z,9.12
2023-04-09T21:06:41.145Z,9.16
2023-04-09T21:09:12.857Z,9.17
2023-04-09T21:11:44.637Z,9.13
2023-04-09T21:14:16.372Z,9.11
2023-04-09T21:16:49.195Z,9.14
2023-04-09T21:19:21.046Z,9.15
2023-04-09T21:21:52.862Z,9.19
2023-04-09T21:24:24.636Z,9.16
2023-04-09T21:26:56.853Z,9.19
2023-04-09T21:29:28.592Z,9.16
2023-04-09T21:32:01.015Z,9.19
2023-04-09T21:34:32.979Z,9.20
2023-04-09T21:37:04.720Z,9.20
2023-04-09T21:39:36.511Z,9.22
2023-04-09T21:42:08.847Z,9.25
2023-04-09T21:44:40.558Z,9.25
2023-04-09T21:47:13.094Z,9.27
2023-04-09T21:49:46.432Z,9.27
2023-04-09T21:52:18.249Z,9.26
2023-04-09T21:54:50.031Z,9.24
2023-04-09T21:57:22.666Z,9.20
2023-04-09T21:59:54.431Z,9.16
2023-04-09T22:02:27.576Z,9.10
2023-04-09T22:05:00.005Z,9.12
2023-04-09T22:07:31.864Z,9.14
2023-04-09T22:10:03.721Z,9.11
2023-04-09T22:12:37.160Z,9.10
2023-04-09T22:15:09.429Z,9.07
2023-04-09T22:17:41.660Z,9.02
2023-04-09T22:20:14.098Z,8.99
2023-04-09T22:22:45.847Z,9.01
2023-04-09T22:25:17.584Z,9.06
2023-04-09T22:27:53.294Z,9.11
2023-04-09T22:30:25.045Z,9.06
2023-04-09T22:32:56.927Z,8.95
2023-04-09T22:35:28.674Z,8.92
2023-04-09T22:38:00.412Z,8.90
2023-04-09T22:40:32.118Z,8.89
2023-04-09T22:43:04.792Z,8.92
2023-04-09T22:45:36.771Z,8.96
2023-04-09T22:48:08.597Z,8.98
2023-04-09T22:50:40.380Z,9.00
2023-04-09T22:53:12.316Z,8.97
2023-04-09T22:55:46.808Z,8.94
2023-04-09T22:58:19.300Z,8.88
2023-04-09T23:00:51.050Z,8.85
2023-04-09T23:03:22.969Z,8.88
2023-04-09T23:05:57.322Z,8.89
2023-04-09T23:08:29.051Z,8.93
2023-04-09T23:11:01.183Z,8.97
2023-04-09T23:13:32.920Z,9.02
2023-04-09T23:16:09.217Z,9.04
2023-04-09T23:18:41.051Z,9.08
2023-04-09T23:21:13.015Z,9.09
2023-04-09T23:23:44.763Z,9.10
2023-04-09T23:26:16.592Z,9.09
2023-04-09T23:28:48.400Z,9.08
2023-04-09T23:31:21.220Z,9.05
2023-04-09T23:33:53.293Z,9.02
2023-04-09T23:36:26.128Z,9.03
2023-04-09T23:38:57.799Z,9.04
2023-04-09T23:41:29.563Z,9.01
2023-04-09T23:44:01.379Z,9.01
2023-04-09T23:46:33.067Z,9.03
2023-04-09T23:49:04.816Z,9.03
2023-04-09T23:51:39.248Z,9.04
2023-04-09T23:54:11.045Z,9.03
2023-04-09T23:56:44.148Z,8.97
2023-04-09T23:59:15.879Z,8.91
